createdAt,value
2018-04-29T00:00:40.666Z,6.30
2018-04-29T00:03:09.051Z,6.00
2018-04-29T00:05:37.606Z,6.68
2018-04-29T00:08:06.011Z,6.22
2018-04-29T00:10:34.386Z,5.82
2018-04-29T00:13:02.786Z,6.30
2018-04-29T00:15:31.922Z,6.20
2018-04-29T00:18:00.321Z,7.57
2018-04-29T00:20:28.696Z,7.28
2018-04-29T00:22:57.261Z,7.62
2018-04-29T00:25:25.645Z,6.50
2018-04-29T00:27:54.034Z,6.97
2018-04-29T00:30:22.449Z,7.85
2018-04-29T00:32:50.821Z,6.90
2018-04-29T00:35:20.013Z,7.45
2018-04-29T00:37:48.392Z,6.35
2018-04-29T00:40:17.153Z,7.60
2018-04-29T00:42:45.532Z,7.60
2018-04-29T00:45:13.910Z,6.82
2018-04-29T00:47:42.307Z,7.65
2018-04-29T00:50:10.696Z,8.60
2018-04-29T00:52:39.092Z,7.90
2018-04-29T00:55:08.255Z,7.50
2018-04-29T00:57:36.659Z,6.87
2018-04-29T01:00:05.799Z,8.02
2018-04-29T01:02:34.324Z,7.10
2018-04-29T01:05:02.701Z,7.18
2018-04-29T01:07:31.069Z,7.75
2018-04-29T01:09:59.466Z,7.22
2018-04-29T01:12:27.841Z,7.55
2018-04-29T01:14:56.231Z,8.07
2018-04-29T01:17:24.604Z,7.05
2018-04-29T01:19:53.340Z,7.62
2018-04-29T01:22:21.708Z,7.97
2018-04-29T01:24:50.085Z,8.18
2018-04-29T01:27:18.480Z,7.97
2018-04-29T01:29:46.857Z,8.40
2018-04-29T01:32:15.248Z,8.60
2018-04-29T01:34:43.630Z,7.78
2018-04-29T01:37:12.298Z,8.68
2018-04-29T01:39:40.676Z,7.80
2018-04-29T01:42:09.044Z,8.63
2018-04-29T01:44:37.440Z,8.05
2018-04-29T01:47:05.812Z,8.10
2018-04-29T01:49:34.208Z,8.70
2018-04-29T01:52:02.590Z,9.63
2018-04-29T01:54:31.157Z,8.68
2018-04-29T01:56:59.530Z,8.95
2018-04-29T01:59:27.910Z,8.43
2018-04-29T02:01:56.305Z,9.10
2018-04-29T02:04:24.680Z,8.93
2018-04-29T02:06:53.068Z,7.75
2018-04-29T02:09:21.467Z,8.65
2018-04-29T02:11:50.619Z,7.65
2018-04-29T02:14:19.020Z,6.68
2018-04-29T02:16:47.416Z,7.45
2018-04-29T02:19:15.912Z,7.10
2018-04-29T02:21:45.045Z,7.72
2018-04-29T02:24:13.478Z,7.45
2018-04-29T02:26:41.855Z,7.43
2018-04-29T02:29:10.231Z,7.28
2018-04-29T02:31:38.628Z,7.80
2018-04-29T02:34:08.120Z,7.30
2018-04-29T02:36:36.517Z,7.03
2018-04-29T02:39:05.668Z,6.20
2018-04-29T02:41:34.100Z,6.70
2018-04-29T02:44:03.240Z,6.72
2018-04-29T02:46:31.617Z,6.60
2018-04-29T02:49:00.021Z,6.45
2018-04-29T02:51:28.388Z,7.47
2018-04-29T02:53:56.799Z,6.82
2018-04-29T02:56:25.949Z,6.60
2018-04-29T02:58:54.524Z,6.97
2018-04-29T03:01:22.911Z,6.68
2018-04-29T03:03:51.286Z,6.32
2018-04-29T03:06:19.681Z,7.22
2018-04-29T03:08:48.056Z,6.95
2018-04-29T03:11:16.464Z,6.07
2018-04-29T03:13:45.607Z,7.03
2018-04-29T03:16:14.190Z,6.03
2018-04-29T03:18:42.560Z,6.57
2018-04-29T03:21:10.936Z,5.57
2018-04-29T03:23:39.439Z,6.35
2018-04-29T03:26:07.968Z,7.10
2018-04-29T03:28:37.136Z,6.93
2018-04-29T03:31:05.512Z,5.68
2018-04-29T03:33:34.169Z,6.93
2018-04-29T03:36:02.557Z,6.20
2018-04-29T03:38:30.949Z,6.62
2018-04-29T03:40:59.348Z,6.45
2018-04-29T03:43:27.744Z,7.12
2018-04-29T03:45:56.904Z,8.88
2018-04-29T03:48:25.277Z,6.95
2018-04-29T03:50:53.845Z,5.10
2018-04-29T03:53:22.216Z,9.23
2018-04-29T03:55:50.586Z,6.82
2018-04-29T03:58:36.877Z,6.20
2018-04-29T04:01:23.168Z,7.47
2018-04-29T04:04:01.345Z,6.85
2018-04-29T04:06:29.723Z,7.82
2018-04-29T04:08:58.128Z,7.12
2018-04-29T04:11:27.270Z,7.47
2018-04-29T04:13:55.841Z,7.50
2018-04-29T04:16:24.221Z,6.70
2018-04-29T04:18:52.598Z,7.18
2018-04-29T04:21:20.996Z,8.05
2018-04-29T04:23:49.432Z,7.20
2018-04-29T04:26:17.800Z,7.47
2018-04-29T04:28:46.936Z,7.53
2018-04-29T04:31:15.714Z,7.75
2018-04-29T04:33:44.089Z,6.43
2018-04-29T04:36:12.464Z,6.25
2018-04-29T04:38:40.862Z,7.30
2018-04-29T04:41:09.245Z,7.82
2018-04-29T04:43:37.640Z,6.80
2018-04-29T04:46:06.017Z,6.18
2018-04-29T04:48:34.561Z,7.50
2018-04-29T04:51:02.939Z,7.97
2018-04-29T04:53:31.335Z,5.90
2018-04-29T04:55:59.745Z,7.70
2018-04-29T04:58:28.122Z,7.60
2018-04-29T05:00:56.521Z,7.25
2018-04-29T05:03:25.658Z,7.53
2018-04-29T05:05:54.238Z,6.85
2018-04-29T05:08:22.605Z,6.93
2018-04-29T05:10:50.984Z,7.62
2018-04-29T05:13:19.378Z,7.60
2018-04-29T05:15:47.771Z,8.10
2018-04-29T05:18:16.170Z,7.85
2018-04-29T05:20:44.565Z,8.02
2018-04-29T05:23:13.853Z,7.55
2018-04-29T05:25:42.230Z,7.50
2018-04-29T05:28:10.610Z,6.82
2018-04-29T05:30:39.001Z,7.10
2018-04-29T05:33:08.143Z,7.47
2018-04-29T05:35:36.541Z,7.68
2018-04-29T05:38:04.917Z,6.82
2018-04-29T05:40:33.469Z,8.43
2018-04-29T05:43:01.846Z,7.18
2018-04-29T05:45:30.221Z,6.95
2018-04-29T05:47:58.624Z,7.07
2018-04-29T05:50:27.007Z,7.93
2018-04-29T05:52:55.414Z,12.40
2018-04-29T05:55:23.860Z,7.55
2018-04-29T05:57:52.450Z,7.95
2018-04-29T06:00:20.851Z,7.72
2018-04-29T06:02:49.230Z,6.90
2018-04-29T06:05:17.636Z,7.43
2018-04-29T06:07:46.773Z,7.43
2018-04-29T06:10:15.169Z,7.40
2018-04-29T06:12:43.536Z,7.22
2018-04-29T06:15:12.114Z,6.75
2018-04-29T06:17:40.506Z,9.02
2018-04-29T06:20:08.877Z,7.12
2018-04-29T06:22:37.804Z,6.90
2018-04-29T06:25:06.188Z,6.57
2018-04-29T06:27:35.381Z,6.70
2018-04-29T06:30:03.754Z,7.03
2018-04-29T06:32:32.178Z,6.82
2018-04-29T06:35:00.549Z,6.57
2018-04-29T06:37:28.930Z,6.68
2018-04-29T06:39:57.326Z,8.18
2018-04-29T06:42:25.703Z,6.65
2018-04-29T06:44:54.264Z,7.85
2018-04-29T06:47:22.637Z,6.32
2018-04-29T06:49:51.009Z,6.53
2018-04-29T06:52:20.182Z,6.95
2018-04-29T06:54:48.564Z,9.68
2018-04-29T06:57:16.964Z,6.65
2018-04-29T06:59:45.354Z,8.02
2018-04-29T07:02:13.963Z,6.28
2018-04-29T07:04:42.361Z,7.22
2018-04-29T07:07:10.745Z,7.20
2018-04-29T07:09:39.157Z,6.50
2018-04-29T07:12:08.305Z,6.90
2018-04-29T07:14:36.709Z,7.60
2018-04-29T07:17:05.090Z,6.53
2018-04-29T07:19:33.732Z,7.77
2018-04-29T07:22:02.113Z,8.00
2018-04-29T07:24:30.518Z,6.75
2018-04-29T07:26:58.910Z,6.23
2018-04-29T07:29:27.334Z,15.60
2018-04-29T07:31:55.743Z,23.43
2018-04-29T07:34:24.125Z,6.17
2018-04-29T07:36:52.694Z,6.30
2018-04-29T07:39:21.077Z,6.90
2018-04-29T07:41:49.447Z,6.57
2018-04-29T07:44:17.857Z,6.03
2018-04-29T07:46:46.237Z,6.73
2018-04-29T07:49:14.648Z,6.60
2018-04-29T07:51:43.786Z,7.27
2018-04-29T07:54:12.242Z,6.57
2018-04-29T07:56:40.626Z,9.77
2018-04-29T07:59:09.008Z,7.30
2018-04-29T08:01:37.418Z,6.50
2018-04-29T08:04:05.843Z,9.20
2018-04-29T08:06:34.249Z,7.20
2018-04-29T08:09:02.611Z,6.83
2018-04-29T08:11:31.212Z,5.67
2018-04-29T08:13:59.588Z,6.30
2018-04-29T08:16:27.967Z,6.67
2018-04-29T08:18:56.358Z,5.93
2018-04-29T08:21:24.725Z,7.30
2018-04-29T08:23:53.117Z,7.03
2018-04-29T08:26:21.597Z,6.87
2018-04-29T08:28:50.723Z,6.30
2018-04-29T08:31:19.239Z,8.00
2018-04-29T08:33:47.856Z,7.77
2018-04-29T08:36:16.348Z,7.77
2018-04-29T08:38:44.682Z,6.93
2018-04-29T08:41:13.104Z,8.80
2018-04-29T08:43:41.577Z,9.37
2018-04-29T08:46:10.933Z,12.97
2018-04-29T08:48:40.999Z,8.00
2018-04-29T08:51:09.433Z,8.83
2018-04-29T08:53:37.864Z,7.40
2018-04-29T08:56:06.259Z,7.20
2018-04-29T08:58:34.661Z,8.80
2018-04-29T09:01:03.826Z,6.57
2018-04-29T09:03:33.416Z,6.50
2018-04-29T09:06:06.865Z,6.43
2018-04-29T09:08:37.083Z,7.80
2018-04-29T09:11:09.215Z,7.00
2018-04-29T09:13:41.634Z,6.37
2018-04-29T09:16:12.712Z,6.50
2018-04-29T09:18:42.981Z,6.80
2018-04-29T09:21:13.095Z,6.73
2018-04-29T09:23:42.956Z,7.10
2018-04-29T09:26:12.774Z,7.23
2018-04-29T09:28:42.233Z,8.20
2018-04-29T09:31:12.841Z,7.43
2018-04-29T09:33:42.920Z,6.50
2018-04-29T09:36:12.871Z,7.80
2018-04-29T09:38:42.374Z,6.77
2018-04-29T09:41:12.135Z,7.10
2018-04-29T09:43:41.204Z,6.27
2018-04-29T09:46:10.369Z,7.07
2018-04-29T09:48:38.787Z,6.90
2018-04-29T09:51:07.175Z,6.63
2018-04-29T09:53:36.777Z,6.37
2018-04-29T09:56:05.689Z,7.93
2018-04-29T09:58:34.337Z,6.13
2018-04-29T10:01:03.322Z,5.30
2018-04-29T10:03:33.271Z,5.27
2018-04-29T10:06:01.859Z,6.20
2018-04-29T10:08:30.776Z,6.23
2018-04-29T10:10:59.569Z,5.73
2018-04-29T10:13:28.453Z,6.57
2018-04-29T10:15:57.817Z,5.57
2018-04-29T10:18:27.186Z,6.20
2018-04-29T10:20:55.586Z,6.03
2018-04-29T10:23:24.837Z,5.10
2018-04-29T10:25:53.309Z,4.63
2018-04-29T10:28:21.692Z,5.90
2018-04-29T10:30:51.970Z,5.87
2018-04-29T10:33:21.125Z,4.57
2018-04-29T10:35:50.606Z,5.40
2018-04-29T10:38:18.980Z,5.20
2018-04-29T10:40:47.356Z,4.77
2018-04-29T10:43:15.765Z,4.50
2018-04-29T10:45:44.148Z,3.80
2018-04-29T10:48:12.547Z,4.40
2018-04-29T10:50:41.138Z,3.60
2018-04-29T10:53:10.597Z,4.30
2018-04-29T10:55:38.971Z,3.93
2018-04-29T10:58:07.339Z,4.17
2018-04-29T11:00:35.783Z,3.70
2018-04-29T11:03:04.943Z,4.33
2018-04-29T11:05:33.344Z,2.90
2018-04-29T11:08:02.491Z,3.70
2018-04-29T11:10:31.033Z,3.30
2018-04-29T11:13:00.171Z,3.83
2018-04-29T11:15:29.120Z,3.40
2018-04-29T11:17:58.308Z,4.10
2018-04-29T11:20:27.441Z,4.43
2018-04-29T11:22:55.860Z,3.63
2018-04-29T11:25:24.257Z,4.30
2018-04-29T11:27:52.680Z,3.03
2018-04-29T11:30:21.052Z,3.67
2018-04-29T11:32:49.424Z,3.70
2018-04-29T11:35:17.827Z,3.53
2018-04-29T11:37:46.207Z,3.97
2018-04-29T11:40:14.626Z,3.20
2018-04-29T11:42:43.488Z,3.70
2018-04-29T11:45:12.707Z,3.20
2018-04-29T11:47:41.224Z,3.67
2018-04-29T11:50:10.584Z,4.10
2018-04-29T11:52:39.460Z,3.40
2018-04-29T11:55:09.796Z,3.37
2018-04-29T11:57:38.672Z,4.33
2018-04-29T12:00:07.583Z,3.93
2018-04-29T12:02:37.495Z,3.60
2018-04-29T12:05:07.232Z,3.40
2018-04-29T12:07:36.933Z,3.23
2018-04-29T12:10:05.553Z,3.17
2018-04-29T12:12:33.932Z,3.60
2018-04-29T12:15:02.328Z,4.30
2018-04-29T12:17:30.728Z,10.37
2018-04-29T12:19:59.131Z,3.90
2018-04-29T12:22:27.540Z,3.93
2018-04-29T12:24:56.349Z,3.03
2018-04-29T12:27:24.731Z,3.60
2018-04-29T12:29:53.172Z,3.40
2018-04-29T12:32:22.338Z,4.23
2018-04-29T12:34:51.150Z,4.20
2018-04-29T12:37:21.169Z,3.53
2018-04-29T12:39:51.337Z,3.23
2018-04-29T12:42:21.142Z,2.97
2018-04-29T12:44:51.226Z,3.13
2018-04-29T12:47:21.288Z,4.10
2018-04-29T12:49:51.272Z,3.90
2018-04-29T12:52:21.404Z,3.70
2018-04-29T12:54:51.104Z,3.50
2018-04-29T12:57:21.016Z,3.30
2018-04-29T12:59:50.929Z,3.27
2018-04-29T13:02:23.199Z,3.30
2018-04-29T13:04:51.897Z,3.57
2018-04-29T13:07:21.291Z,3.40
2018-04-29T13:09:50.956Z,3.20
2018-04-29T13:12:20.893Z,4.00
2018-04-29T13:14:51.027Z,3.43
2018-04-29T13:17:20.928Z,4.47
2018-04-29T13:19:51.056Z,3.90
2018-04-29T13:22:20.948Z,3.57
2018-04-29T13:24:50.901Z,2.60
2018-04-29T13:27:20.681Z,3.00
2018-04-29T13:29:51.353Z,3.00
2018-04-29T13:32:21.000Z,3.17
2018-04-29T13:34:50.957Z,3.00
2018-04-29T13:37:20.970Z,3.60
2018-04-29T13:39:51.082Z,4.97
2018-04-29T13:42:19.500Z,2.77
2018-04-29T13:44:47.908Z,3.30
2018-04-29T13:47:16.585Z,3.40
2018-04-29T13:49:44.968Z,4.10
2018-04-29T13:52:13.355Z,3.87
2018-04-29T13:54:41.760Z,3.87
2018-04-29T13:57:10.916Z,3.30
2018-04-29T13:59:39.330Z,3.17
2018-04-29T14:02:08.918Z,3.57
2018-04-29T14:04:44.930Z,3.63
2018-04-29T14:07:23.617Z,3.87
2018-04-29T14:09:54.080Z,4.10
2018-04-29T14:12:23.828Z,4.00
2018-04-29T14:14:52.581Z,4.80
2018-04-29T14:17:26.765Z,4.23
2018-04-29T14:20:03.491Z,5.70
2018-04-29T14:22:33.338Z,5.40
2018-04-29T14:25:02.989Z,5.33
2018-04-29T14:27:33.565Z,6.60
2018-04-29T14:30:03.692Z,6.70
2018-04-29T14:32:33.736Z,12.83
2018-04-29T14:35:02.579Z,7.30
2018-04-29T14:37:31.335Z,6.60
2018-04-29T14:40:04.783Z,10.97
2018-04-29T14:42:34.469Z,6.63
2018-04-29T14:45:02.844Z,4.80
2018-04-29T14:47:31.347Z,4.47
2018-04-29T14:50:00.813Z,4.57
2018-04-29T14:52:29.195Z,4.00
2018-04-29T14:54:58.397Z,4.97
2018-04-29T14:57:27.574Z,4.37
2018-04-29T14:59:55.969Z,6.03
2018-04-29T15:02:24.348Z,5.17
2018-04-29T15:04:52.920Z,4.03
2018-04-29T15:07:21.294Z,4.60
2018-04-29T15:09:49.684Z,3.90
2018-04-29T15:12:18.382Z,4.50
2018-04-29T15:14:46.871Z,5.20
2018-04-29T15:17:15.284Z,4.90
2018-04-29T15:19:51.534Z,5.10
2018-04-29T15:22:21.170Z,4.60
2018-04-29T15:24:49.541Z,4.63
2018-04-29T15:27:18.260Z,5.97
2018-04-29T15:29:46.869Z,6.00
2018-04-29T15:32:15.267Z,4.57
2018-04-29T15:34:44.441Z,5.53
2018-04-29T15:37:12.817Z,5.97
2018-04-29T15:39:41.219Z,4.67
2018-04-29T15:42:10.355Z,4.10
2018-04-29T15:44:38.809Z,6.07
2018-04-29T15:47:07.972Z,4.30
2018-04-29T15:49:36.350Z,8.23
2018-04-29T15:52:04.833Z,4.67
2018-04-29T15:54:33.220Z,4.90
2018-04-29T15:57:01.678Z,4.70
2018-04-29T15:59:30.922Z,4.50
2018-04-29T16:02:00.256Z,4.60
2018-04-29T16:04:29.257Z,6.17
2018-04-29T16:06:57.657Z,5.37
2018-04-29T16:09:26.058Z,5.40
2018-04-29T16:11:55.205Z,5.67
2018-04-29T16:14:23.597Z,5.70
2018-04-29T16:16:52.070Z,5.93
2018-04-29T16:19:21.367Z,5.37
2018-04-29T16:21:51.724Z,5.30
2018-04-29T16:24:20.096Z,4.80
2018-04-29T16:26:49.541Z,4.90
2018-04-29T16:29:17.932Z,5.00
2018-04-29T16:31:46.326Z,5.07
2018-04-29T16:34:14.747Z,4.70
2018-04-29T16:36:43.448Z,4.67
2018-04-29T16:39:12.694Z,4.90
2018-04-29T16:41:41.095Z,4.90
2018-04-29T16:44:09.488Z,4.80
2018-04-29T16:46:38.089Z,4.43
2018-04-29T16:49:07.514Z,4.00
2018-04-29T16:51:35.949Z,4.40
2018-04-29T16:54:04.501Z,4.40
2018-04-29T16:56:32.950Z,4.90
2018-04-29T16:59:01.334Z,5.07
2018-04-29T17:01:29.742Z,4.13
2018-04-29T17:03:58.117Z,5.07
2018-04-29T17:06:26.513Z,4.23
2018-04-29T17:08:54.889Z,5.33
2018-04-29T17:11:23.452Z,3.73
2018-04-29T17:13:52.260Z,3.80
2018-04-29T17:16:20.634Z,3.33
2018-04-29T17:18:49.051Z,3.60
2018-04-29T17:21:18.300Z,4.30
2018-04-29T17:23:46.692Z,2.80
2018-04-29T17:26:15.086Z,4.10
2018-04-29T17:28:48.853Z,4.20
2018-04-29T17:31:17.221Z,4.20
2018-04-29T17:33:45.604Z,5.13
2018-04-29T17:36:14.224Z,4.20
2018-04-29T17:38:42.600Z,3.97
2018-04-29T17:41:10.999Z,4.07
2018-04-29T17:43:40.132Z,3.20
2018-04-29T17:46:08.724Z,4.10
2018-04-29T17:48:37.092Z,5.33
2018-04-29T17:51:05.458Z,4.00
2018-04-29T17:53:33.852Z,4.30
2018-04-29T17:56:02.234Z,4.60
2018-04-29T17:58:30.642Z,4.30
2018-04-29T18:00:59.315Z,3.97
2018-04-29T18:03:27.945Z,4.40
2018-04-29T18:05:57.081Z,3.50
2018-04-29T18:08:26.280Z,4.37
2018-04-29T18:10:54.675Z,4.50
2018-04-29T18:13:23.053Z,4.30
2018-04-29T18:15:51.916Z,4.20
2018-04-29T18:18:20.322Z,4.70
2018-04-29T18:20:48.849Z,4.00
2018-04-29T18:23:18.020Z,4.50
2018-04-29T18:25:46.478Z,4.53
2018-04-29T18:28:14.947Z,4.33
2018-04-29T18:30:43.493Z,4.00
2018-04-29T18:33:12.888Z,3.60
2018-04-29T18:35:42.057Z,3.87
2018-04-29T18:38:10.911Z,4.03
2018-04-29T18:40:39.312Z,4.10
2018-04-29T18:43:07.788Z,3.53
2018-04-29T18:45:36.406Z,3.40
2018-04-29T18:48:04.781Z,3.10
2018-04-29T18:50:34.980Z,4.60
2018-04-29T18:53:03.282Z,3.20
2018-04-29T18:55:33.444Z,3.63
2018-04-29T18:58:01.907Z,4.33
2018-04-29T19:00:31.088Z,4.27
2018-04-29T19:03:01.127Z,3.63
2018-04-29T19:05:47.974Z,4.10
2018-04-29T19:08:16.524Z,3.60
2018-04-29T19:10:45.097Z,3.57
2018-04-29T19:13:13.915Z,4.23
2018-04-29T19:15:42.607Z,2.90
2018-04-29T19:18:10.993Z,3.70
2018-04-29T19:20:39.579Z,4.13
2018-04-29T19:23:07.961Z,3.70
2018-04-29T19:25:36.361Z,3.97
2018-04-29T19:28:04.860Z,3.37
2018-04-29T19:30:35.033Z,4.67
2018-04-29T19:33:03.523Z,3.73
2018-04-29T19:35:32.057Z,4.00
2018-04-29T19:38:00.891Z,3.23
2018-04-29T19:40:30.096Z,3.27
2018-04-29T19:42:58.753Z,3.63
2018-04-29T19:45:27.230Z,4.53
2018-04-29T19:47:55.736Z,3.70
2018-04-29T19:50:24.264Z,3.83
2018-04-29T19:52:53.984Z,4.23
2018-04-29T19:55:22.453Z,4.87
2018-04-29T19:57:51.592Z,4.03
2018-04-29T20:00:20.005Z,4.40
2018-04-29T20:02:48.407Z,3.87
2018-04-29T20:05:17.580Z,3.53
2018-04-29T20:07:45.963Z,4.33
2018-04-29T20:10:15.652Z,4.50
2018-04-29T20:12:44.044Z,4.40
2018-04-29T20:15:12.555Z,4.70
2018-04-29T20:17:41.726Z,3.67
2018-04-29T20:20:10.278Z,3.97
2018-04-29T20:22:39.492Z,3.80
2018-04-29T20:25:07.870Z,4.40
2018-04-29T20:27:36.436Z,3.80
2018-04-29T20:30:04.848Z,3.20
2018-04-29T20:32:55.535Z,3.43
2018-04-29T20:35:24.818Z,4.10
2018-04-29T20:37:53.464Z,3.50
2018-04-29T20:40:21.945Z,4.00
2018-04-29T20:42:50.329Z,3.33
2018-04-29T20:45:18.735Z,4.10
2018-04-29T20:47:47.119Z,4.73
2018-04-29T20:50:16.237Z,2.87
2018-04-29T20:52:44.617Z,3.70
2018-04-29T20:55:13.232Z,3.87
2018-04-29T20:57:42.457Z,3.60
2018-04-29T21:00:11.074Z,3.97
2018-04-29T21:02:40.285Z,4.03
2018-04-29T21:05:08.682Z,4.53
2018-04-29T21:07:38.204Z,4.50
2018-04-29T21:10:06.593Z,3.50
2018-04-29T21:12:35.077Z,3.87
2018-04-29T21:15:03.476Z,3.40
2018-04-29T21:17:31.907Z,4.10
2018-04-29T21:20:00.295Z,3.20
2018-04-29T21:22:38.044Z,2.73
2018-04-29T21:25:10.014Z,3.47
2018-04-29T21:27:49.974Z,3.67
2018-04-29T21:30:21.046Z,3.80
2018-04-29T21:32:50.710Z,3.50
2018-04-29T21:35:21.261Z,3.10
2018-04-29T21:37:52.512Z,3.80
2018-04-29T21:40:24.120Z,3.70
2018-04-29T21:42:55.658Z,3.77
2018-04-29T21:45:26.746Z,3.73
2018-04-29T21:47:57.827Z,3.93
2018-04-29T21:50:26.990Z,3.30
2018-04-29T21:52:57.538Z,3.00
2018-04-29T21:55:32.457Z,2.53
2018-04-29T21:58:05.850Z,2.67
2018-04-29T22:00:37.943Z,2.63
2018-04-29T22:03:10.663Z,2.57
2018-04-29T22:05:47.107Z,2.40
2018-04-29T22:08:26.014Z,2.23
2018-04-29T22:10:55.713Z,2.47
2018-04-29T22:13:33.641Z,2.40
2018-04-29T22:16:04.421Z,1.40
2018-04-29T22:18:34.494Z,2.63
2018-04-29T22:21:04.249Z,3.53
2018-04-29T22:23:35.871Z,2.30
2018-04-29T22:26:06.653Z,1.73
2018-04-29T22:28:36.297Z,2.40
2018-04-29T22:31:05.516Z,2.30
2018-04-29T22:33:36.185Z,2.27
2018-04-29T22:36:05.173Z,2.40
2018-04-29T22:38:35.277Z,2.30
2018-04-29T22:41:05.060Z,2.63
2018-04-29T22:43:35.070Z,2.20
2018-04-29T22:46:04.085Z,2.37
2018-04-29T22:48:34.722Z,2.90
2018-04-29T22:51:04.835Z,2.50
2018-04-29T22:53:33.617Z,2.40
2018-04-29T22:56:02.000Z,3.10
2018-04-29T22:58:37.055Z,2.13
2018-04-29T23:01:17.980Z,3.53
2018-04-29T23:03:49.768Z,3.33
2018-04-29T23:06:19.751Z,2.70
2018-04-29T23:08:50.026Z,2.67
2018-04-29T23:11:20.667Z,2.57
2018-04-29T23:13:51.839Z,2.93
2018-04-29T23:16:22.167Z,2.30
2018-04-29T23:18:51.913Z,3.60
2018-04-29T23:21:21.006Z,3.90
2018-04-29T23:23:50.499Z,2.80
2018-04-29T23:26:20.402Z,4.23
2018-04-29T23:28:49.547Z,2.10
2018-04-29T23:31:21.454Z,3.13
2018-04-29T23:33:52.023Z,2.87
2018-04-29T23:36:21.567Z,4.87
2018-04-29T23:38:52.235Z,2.67
2018-04-29T23:41:21.372Z,3.70
2018-04-29T23:43:57.751Z,2.60
2018-04-29T23:46:42.293Z,3.43
2018-04-29T23:49:20.541Z,4.77
2018-04-29T23:52:04.659Z,3.33
2018-04-29T23:54:53.198Z,3.30
2018-04-29T23:57:25.065Z,3.43
2018-04-29T23:59:56.437Z,3.73
